sensor_id;sensor_type;location;lat;lon;timestamp;temperature;humidity
26270;DHT22;15937;50.612;6.656;2023-05-07T00:03:49;13.90;99.90
26270;DHT22;15937;50.612;6.656;2023-05-07T00:07:51;14.00;99.90
26270;DHT22;15937;50.612;6.656;2023-05-07T00:11:54;13.80;99.90
26270;DHT22;15937;50.612;6.656;2023-05-07T00:15:56;13.80;99.90
26270;DHT22;15937;50.612;6.656;2023-05-07T00:19:58;13.90;99.90
26270;DHT22;15937;50.612;6.656;2023-05-07T00:23:59;13.90;99.90
26270;DHT22;15937;50.612;6.656;2023-05-07T00:28:01;13.90;99.90
26270;DHT22;15937;50.612;6.656;2023-05-07T00:32:05;13.80;99.90
26270;DHT22;15937;50.612;6.656;2023-05-07T00:36:07;13.90;99.90
26270;DHT22;15937;50.612;6.656;2023-05-07T00:40:09;13.90;99.90
26270;DHT22;15937;50.612;6.656;2023-05-07T00:44:11;13.90;99.90
26270;DHT22;15937;50.612;6.656;2023-05-07T00:48:13;13.80;99.90
26270;DHT22;15937;50.612;6.656;2023-05-07T00:52:17;13.80;99.90
26270;DHT22;15937;50.612;6.656;2023-05-07T00:56:22;13.70;99.90
26270;DHT22;15937;50.612;6.656;2023-05-07T01:00:24;13.70;99.90
26270;DHT22;15937;50.612;6.656;2023-05-07T01:04:27;13.70;99.90
26270;DHT22;15937;50.612;6.656;2023-05-07T01:08:29;13.70;99.90
26270;DHT22;15937;50.612;6.656;2023-05-07T01:12:31;13.70;99.90
26270;DHT22;15937;50.612;6.656;2023-05-07T01:16:33;13.80;99.90
26270;DHT22;15937;50.612;6.656;2023-05-07T01:20:35;13.70;99.90
26270;DHT22;15937;50.612;6.656;2023-05-07T01:24:38;13.80;99.90
26270;DHT22;15937;50.612;6.656;2023-05-07T01:28:40;13.70;99.90
26270;DHT22;15937;50.612;6.656;2023-05-07T01:32:51;13.50;99.90
26270;DHT22;15937;50.612;6.656;2023-05-07T01:36:54;13.50;99.90
26270;DHT22;15937;50.612;6.656;2023-05-07T01:40:57;13.40;99.90
26270;DHT22;15937;50.612;6.656;2023-05-07T01:44:59;13.60;99.90
26270;DHT22;15937;50.612;6.656;2023-05-07T01:49:01;13.60;99.90
26270;DHT22;15937;50.612;6.656;2023-05-07T01:53:03;13.60;99.90
26270;DHT22;15937;50.612;6.656;2023-05-07T01:57:05;13.70;99.90
26270;DHT22;15937;50.612;6.656;2023-05-07T02:01:07;13.50;99.90
26270;DHT22;15937;50.612;6.656;2023-05-07T02:05:08;13.50;99.90
26270;DHT22;15937;50.612;6.656;2023-05-07T02:09:11;13.30;99.90
26270;DHT22;15937;50.612;6.656;2023-05-07T02:13:12;13.20;99.90
26270;DHT22;15937;50.612;6.656;2023-05-07T02:17:14;13.20;99.90
26270;DHT22;15937;50.612;6.656;2023-05-07T02:21:16;13.10;99.90
26270;DHT22;15937;50.612;6.656;2023-05-07T02:25:18;13.10;99.90
26270;DHT22;15937;50.612;6.656;2023-05-07T02:29:19;13.20;99.90
26270;DHT22;15937;50.612;6.656;2023-05-07T02:33:21;13.10;99.90
26270;DHT22;15937;50.612;6.656;2023-05-07T02:37:23;13.30;99.90
26270;DHT22;15937;50.612;6.656;2023-05-07T02:41:24;13.40;99.90
26270;DHT22;15937;50.612;6.656;2023-05-07T02:45:26;13.50;99.90
26270;DHT22;15937;50.612;6.656;2023-05-07T02:49:28;13.40;99.90
26270;DHT22;15937;50.612;6.656;2023-05-07T02:53:30;13.40;99.90
26270;DHT22;15937;50.612;6.656;2023-05-07T02:57:31;13.10;99.90
26270;DHT22;15937;50.612;6.656;2023-05-07T03:01:33;13.00;99.90
26270;DHT22;15937;50.612;6.656;2023-05-07T03:05:35;13.00;99.90
26270;DHT22;15937;50.612;6.656;2023-05-07T03:09:36;13.20;99.90
26270;DHT22;15937;50.612;6.656;2023-05-07T03:13:38;13.00;99.90
26270;DHT22;15937;50.612;6.656;2023-05-07T03:17:40;13.00;99.90
26270;DHT22;15937;50.612;6.656;2023-05-07T03:21:42;13.10;99.90
26270;DHT22;15937;50.612;6.656;2023-05-07T03:25:44;13.30;99.90
26270;DHT22;15937;50.612;6.656;2023-05-07T03:29:45;13.40;99.90
26270;DHT22;15937;50.612;6.656;2023-05-07T03:33:55;13.40;99.90
26270;DHT22;15937;50.612;6.656;2023-05-07T03:37:57;13.50;99.90
26270;DHT22;15937;50.612;6.656;2023-05-07T03:41:59;13.20;99.90
26270;DHT22;15937;50.612;6.656;2023-05-07T03:46:01;13.30;99.90
26270;DHT22;15937;50.612;6.656;2023-05-07T03:50:03;13.20;99.90
26270;DHT22;15937;50.612;6.656;2023-05-07T03:54:05;13.10;99.90
26270;DHT22;15937;50.612;6.656;2023-05-07T03:58:06;13.40;99.90
26270;DHT22;15937;50.612;6.656;2023-05-07T04:02:08;13.50;99.90
26270;DHT22;15937;50.612;6.656;2023-05-07T04:06:11;13.50;99.90
26270;DHT22;15937;50.612;6.656;2023-05-07T04:10:13;13.30;99.90
26270;DHT22;15937;50.612;6.656;2023-05-07T04:14:15;13.20;99.90
26270;DHT22;15937;50.612;6.656;2023-05-07T04:18:17;13.50;99.90
26270;DHT22;15937;50.612;6.656;2023-05-07T04:22:19;13.60;99.90
26270;DHT22;15937;50.612;6.656;2023-05-07T04:26:21;13.70;99.90
26270;DHT22;15937;50.612;6.656;2023-05-07T04:30:22;13.60;99.90
26270;DHT22;15937;50.612;6.656;2023-05-07T04:34:24;13.60;99.90
26270;DHT22;15937;50.612;6.656;2023-05-07T04:38:26;13.70;99.90
26270;DHT22;15937;50.612;6.656;2023-05-07T04:42:28;13.60;99.90
26270;DHT22;15937;50.612;6.656;2023-05-07T04:46:30;13.70;99.90
26270;DHT22;15937;50.612;6.656;2023-05-07T04:50:32;13.70;99.90
26270;DHT22;15937;50.612;6.656;2023-05-07T04:54:34;13.80;99.90
26270;DHT22;15937;50.612;6.656;2023-05-07T04:58:36;13.80;99.90
26270;DHT22;15937;50.612;6.656;2023-05-07T05:02:38;14.00;99.90
26270;DHT22;15937;50.612;6.656;2023-05-07T05:06:40;14.10;99.90
26270;DHT22;15937;50.612;6.656;2023-05-07T05:10:42;14.20;99.90
26270;DHT22;15937;50.612;6.656;2023-05-07T05:14:44;14.20;99.90
26270;DHT22;15937;50.612;6.656;2023-05-07T05:18:46;14.30;99.90
26270;DHT22;15937;50.612;6.656;2023-05-07T05:22:48;14.40;99.90
26270;DHT22;15937;50.612;6.656;2023-05-07T05:26:53;14.50;99.90
26270;DHT22;15937;50.612;6.656;2023-05-07T05:30:55;14.60;99.90
26270;DHT22;15937;50.612;6.656;2023-05-07T05:34:57;14.60;99.90
26270;DHT22;15937;50.612;6.656;2023-05-07T05:38:59;14.70;99.90
26270;DHT22;15937;50.612;6.656;2023-05-07T05:43:00;14.80;99.90
26270;DHT22;15937;50.612;6.656;2023-05-07T05:47:03;14.90;99.90
26270;DHT22;15937;50.612;6.656;2023-05-07T05:51:04;15.00;99.90
26270;DHT22;15937;50.612;6.656;2023-05-07T05:55:07;15.20;99.90
26270;DHT22;15937;50.612;6.656;2023-05-07T05:59:09;15.30;99.90
26270;DHT22;15937;50.612;6.656;2023-05-07T06:03:11;15.40;99.90
26270;DHT22;15937;50.612;6.656;2023-05-07T06:07:15;15.40;99.90
26270;DHT22;15937;50.612;6.656;2023-05-07T06:11:17;15.40;99.90
26270;DHT22;15937;50.612;6.656;2023-05-07T06:15:19;15.30;99.90
26270;DHT22;15937;50.612;6.656;2023-05-07T06:19:21;15.40;99.90
26270;DHT22;15937;50.612;6.656;2023-05-07T06:23:25;15.60;99.90
26270;DHT22;15937;50.612;6.656;2023-05-07T06:27:27;15.70;99.90
26270;DHT22;15937;50.612;6.656;2023-05-07T06:31:30;15.80;99.90
26270;DHT22;15937;50.612;6.656;2023-05-07T06:35:35;16.00;99.90
26270;DHT22;15937;50.612;6.656;2023-05-07T06:39:37;16.00;99.90
26270;DHT22;15937;50.612;6.656;2023-05-07T06:43:39;16.20;99.90
26270;DHT22;15937;50.612;6.656;2023-05-07T06:47:41;16.20;99.90
26270;DHT22;15937;50.612;6.656;2023-05-07T06:51:42;16.40;99.90
26270;DHT22;15937;50.612;6.656;2023-05-07T06:55:44;16.50;99.90
26270;DHT22;15937;50.612;6.656;2023-05-07T06:59:46;16.50;99.90
26270;DHT22;15937;50.612;6.656;2023-05-07T07:03:48;16.40;99.90
26270;DHT22;15937;50.612;6.656;2023-05-07T07:07:50;16.50;99.90
26270;DHT22;15937;50.612;6.656;2023-05-07T07:11:54;16.50;99.90
26270;DHT22;15937;50.612;6.656;2023-05-07T07:15:59;16.60;99.90
26270;DHT22;15937;50.612;6.656;2023-05-07T07:20:02;16.70;99.90
26270;DHT22;15937;50.612;6.656;2023-05-07T07:24:04;16.90;99.90
26270;DHT22;15937;50.612;6.656;2023-05-07T07:28:06;16.90;99.90
26270;DHT22;15937;50.612;6.656;2023-05-07T07:32:08;17.10;99.90
26270;DHT22;15937;50.612;6.656;2023-05-07T07:36:10;17.20;99.90
26270;DHT22;15937;50.612;6.656;2023-05-07T07:40:12;17.30;99.90
26270;DHT22;15937;50.612;6.656;2023-05-07T07:44:14;17.40;99.90
26270;DHT22;15937;50.612;6.656;2023-05-07T07:48:17;17.60;99.90
26270;DHT22;15937;50.612;6.656;2023-05-07T07:52:19;17.50;99.90
26270;DHT22;15937;50.612;6.656;2023-05-07T07:56:21;17.40;99.90
26270;DHT22;15937;50.612;6.656;2023-05-07T08:00:23;17.40;99.90
26270;DHT22;15937;50.612;6.656;2023-05-07T08:04:25;17.10;99.90
26270;DHT22;15937;50.612;6.656;2023-05-07T08:08:27;17.10;99.90
26270;DHT22;15937;50.612;6.656;2023-05-07T08:12:29;17.20;99.90
26270;DHT22;15937;50.612;6.656;2023-05-07T08:16:31;17.50;99.90
26270;DHT22;15937;50.612;6.656;2023-05-07T08:20:34;17.60;99.90
26270;DHT22;15937;50.612;6.656;2023-05-07T08:24:41;17.30;99.90
26270;DHT22;15937;50.612;6.656;2023-05-07T08:28:43;17.50;99.90
26270;DHT22;15937;50.612;6.656;2023-05-07T08:32:46;17.60;99.90
26270;DHT22;15937;50.612;6.656;2023-05-07T08:36:48;17.80;99.90
26270;DHT22;15937;50.612;6.656;2023-05-07T08:40:52;17.70;99.90
26270;DHT22;15937;50.612;6.656;2023-05-07T08:44:57;18.00;99.90
26270;DHT22;15937;50.612;6.656;2023-05-07T08:49:01;18.10;99.90
26270;DHT22;15937;50.612;6.656;2023-05-07T08:53:04;18.40;99.90
26270;DHT22;15937;50.612;6.656;2023-05-07T08:57:07;18.60;99.90
26270;DHT22;15937;50.612;6.656;2023-05-07T09:01:14;18.60;99.90
26270;DHT22;15937;50.612;6.656;2023-05-07T09:05:17;18.80;99.90
26270;DHT22;15937;50.612;6.656;2023-05-07T09:09:21;18.90;99.90
26270;DHT22;15937;50.612;6.656;2023-05-07T09:13:24;19.10;99.90
26270;DHT22;15937;50.612;6.656;2023-05-07T09:17:27;19.10;99.90
26270;DHT22;15937;50.612;6.656;2023-05-07T09:21:29;19.00;99.90
26270;DHT22;15937;50.612;6.656;2023-05-07T09:25:34;19.00;99.90
26270;DHT22;15937;50.612;6.656;2023-05-07T09:29:36;19.00;99.90
26270;DHT22;15937;50.612;6.656;2023-05-07T09:33:39;19.00;99.90
26270;DHT22;15937;50.612;6.656;2023-05-07T09:37:41;19.50;99.90
26270;DHT22;15937;50.612;6.656;2023-05-07T09:41:44;19.60;99.90
26270;DHT22;15937;50.612;6.656;2023-05-07T09:45:47;19.60;99.90
26270;DHT22;15937;50.612;6.656;2023-05-07T09:49:56;19.30;99.90
26270;DHT22;15937;50.612;6.656;2023-05-07T09:54:00;19.60;99.90
26270;DHT22;15937;50.612;6.656;2023-05-07T09:58:05;19.90;99.90
26270;DHT22;15937;50.612;6.656;2023-05-07T10:02:09;19.90;99.90
26270;DHT22;15937;50.612;6.656;2023-05-07T10:06:12;19.80;99.90
26270;DHT22;15937;50.612;6.656;2023-05-07T10:10:14;19.60;99.90
26270;DHT22;15937;50.612;6.656;2023-05-07T10:14:17;19.40;99.90
26270;DHT22;15937;50.612;6.656;2023-05-07T10:18:21;19.20;99.90
26270;DHT22;15937;50.612;6.656;2023-05-07T10:22:40;19.40;99.90
26270;DHT22;15937;50.612;6.656;2023-05-07T10:26:48;19.40;99.90
26270;DHT22;15937;50.612;6.656;2023-05-07T10:35:14;19.00;99.90
26270;DHT22;15937;50.612;6.656;2023-05-07T10:39:17;19.00;99.90
26270;DHT22;15937;50.612;6.656;2023-05-07T10:43:21;18.90;99.90
26270;DHT22;15937;50.612;6.656;2023-05-07T10:47:23;19.30;99.90
26270;DHT22;15937;50.612;6.656;2023-05-07T10:51:31;19.50;99.90
26270;DHT22;15937;50.612;6.656;2023-05-07T10:55:34;19.20;99.90
26270;DHT22;15937;50.612;6.656;2023-05-07T10:59:37;19.20;99.90
26270;DHT22;15937;50.612;6.656;2023-05-07T11:04:12;19.40;99.90
26270;DHT22;15937;50.612;6.656;2023-05-07T11:08:15;19.70;99.90
26270;DHT22;15937;50.612;6.656;2023-05-07T11:16:38;19.40;99.90
26270;DHT22;15937;50.612;6.656;2023-05-07T11:24:47;19.80;99.90
26270;DHT22;15937;50.612;6.656;2023-05-07T11:28:49;19.80;99.90
26270;DHT22;15937;50.612;6.656;2023-05-07T11:32:51;19.70;99.90
26270;DHT22;15937;50.612;6.656;2023-05-07T11:36:53;19.60;99.90
26270;DHT22;15937;50.612;6.656;2023-05-07T11:40:57;19.40;99.90
26270;DHT22;15937;50.612;6.656;2023-05-07T11:45:06;19.40;99.90
26270;DHT22;15937;50.612;6.656;2023-05-07T11:49:09;19.50;99.90
26270;DHT22;15937;50.612;6.656;2023-05-07T11:53:11;19.50;99.90
26270;DHT22;15937;50.612;6.656;2023-05-07T11:57:15;19.60;99.90
26270;DHT22;15937;50.612;6.656;2023-05-07T12:01:17;19.70;99.90
26270;DHT22;15937;50.612;6.656;2023-05-07T12:05:19;19.50;99.90
26270;DHT22;15937;50.612;6.656;2023-05-07T12:09:31;19.50;99.90
26270;DHT22;15937;50.612;6.656;2023-05-07T12:13:35;19.60;99.90
26270;DHT22;15937;50.612;6.656;2023-05-07T12:17:37;19.30;99.90
26270;DHT22;15937;50.612;6.656;2023-05-07T12:21:45;19.00;99.90
26270;DHT22;15937;50.612;6.656;2023-05-07T12:25:47;18.70;99.90
26270;DHT22;15937;50.612;6.656;2023-05-07T12:29:50;18.70;99.90
26270;DHT22;15937;50.612;6.656;2023-05-07T12:33:52;18.30;99.90
26270;DHT22;15937;50.612;6.656;2023-05-07T12:37:59;18.10;99.90
26270;DHT22;15937;50.612;6.656;2023-05-07T12:42:05;18.30;99.90
26270;DHT22;15937;50.612;6.656;2023-05-07T12:46:07;18.20;99.90
26270;DHT22;15937;50.612;6.656;2023-05-07T12:50:10;17.90;99.90
26270;DHT22;15937;50.612;6.656;2023-05-07T12:54:13;17.60;99.90
26270;DHT22;15937;50.612;6.656;2023-05-07T12:58:19;17.40;99.90
26270;DHT22;15937;50.612;6.656;2023-05-07T13:02:32;17.20;99.90
26270;DHT22;15937;50.612;6.656;2023-05-07T13:06:35;17.30;99.90
26270;DHT22;15937;50.612;6.656;2023-05-07T13:10:36;17.10;99.90
26270;DHT22;15937;50.612;6.656;2023-05-07T13:14:38;16.80;99.90
26270;DHT22;15937;50.612;6.656;2023-05-07T13:18:41;16.80;99.90
26270;DHT22;15937;50.612;6.656;2023-05-07T13:22:45;17.20;99.90
26270;DHT22;15937;50.612;6.656;2023-05-07T13:26:47;17.40;99.90
26270;DHT22;15937;50.612;6.656;2023-05-07T13:30:49;17.40;99.90
26270;DHT22;15937;50.612;6.656;2023-05-07T13:34:53;17.40;99.90
26270;DHT22;15937;50.612;6.656;2023-05-07T13:38:54;17.30;99.90
26270;DHT22;15937;50.612;6.656;2023-05-07T13:43:00;17.50;99.90
26270;DHT22;15937;50.612;6.656;2023-05-07T13:47:03;17.50;99.90
26270;DHT22;15937;50.612;6.656;2023-05-07T13:51:06;17.00;99.90
26270;DHT22;15937;50.612;6.656;2023-05-07T13:55:08;17.30;99.90
26270;DHT22;15937;50.612;6.656;2023-05-07T13:59:10;17.60;99.90
26270;DHT22;15937;50.612;6.656;2023-05-07T14:03:12;17.70;99.90
26270;DHT22;15937;50.612;6.656;2023-05-07T14:07:14;17.50;99.90
26270;DHT22;15937;50.612;6.656;2023-05-07T14:11:16;17.80;99.90
26270;DHT22;15937;50.612;6.656;2023-05-07T14:15:18;17.80;99.90
26270;DHT22;15937;50.612;6.656;2023-05-07T14:19:20;17.90;99.90
26270;DHT22;15937;50.612;6.656;2023-05-07T14:23:24;17.60;99.90
26270;DHT22;15937;50.612;6.656;2023-05-07T14:27:27;17.50;99.90
26270;DHT22;15937;50.612;6.656;2023-05-07T14:31:29;17.40;99.90
26270;DHT22;15937;50.612;6.656;2023-05-07T14:35:31;17.30;99.90
26270;DHT22;15937;50.612;6.656;2023-05-07T14:39:33;17.30;99.90
26270;DHT22;15937;50.612;6.656;2023-05-07T14:43:35;17.30;99.90
26270;DHT22;15937;50.612;6.656;2023-05-07T14:47:37;17.40;99.90
26270;DHT22;15937;50.612;6.656;2023-05-07T14:51:39;17.40;99.90
26270;DHT22;15937;50.612;6.656;2023-05-07T14:55:40;17.40;99.90
26270;DHT22;15937;50.612;6.656;2023-05-07T14:59:42;17.60;99.90
26270;DHT22;15937;50.612;6.656;2023-05-07T15:03:44;17.60;99.90
26270;DHT22;15937;50.612;6.656;2023-05-07T15:07:46;17.50;99.90
26270;DHT22;15937;50.612;6.656;2023-05-07T15:11:48;17.60;99.90
26270;DHT22;15937;50.612;6.656;2023-05-07T15:15:50;17.80;99.90
26270;DHT22;15937;50.612;6.656;2023-05-07T15:19:52;17.70;99.90
26270;DHT22;15937;50.612;6.656;2023-05-07T15:23:55;17.80;99.90
26270;DHT22;15937;50.612;6.656;2023-05-07T15:27:59;17.90;99.90
26270;DHT22;15937;50.612;6.656;2023-05-07T15:32:00;17.80;99.90
26270;DHT22;15937;50.612;6.656;2023-05-07T15:36:02;17.70;99.90
26270;DHT22;15937;50.612;6.656;2023-05-07T15:40:05;17.50;99.90
26270;DHT22;15937;50.612;6.656;2023-05-07T15:44:08;17.40;99.90
26270;DHT22;15937;50.612;6.656;2023-05-07T15:48:10;17.40;99.90
26270;DHT22;15937;50.612;6.656;2023-05-07T15:52:12;17.60;99.90
26270;DHT22;15937;50.612;6.656;2023-05-07T15:56:16;17.60;99.90
26270;DHT22;15937;50.612;6.656;2023-05-07T16:00:18;17.60;99.90
26270;DHT22;15937;50.612;6.656;2023-05-07T16:04:20;17.80;99.90
26270;DHT22;15937;50.612;6.656;2023-05-07T16:08:22;17.80;99.90
26270;DHT22;15937;50.612;6.656;2023-05-07T16:12:24;17.40;99.90
26270;DHT22;15937;50.612;6.656;2023-05-07T16:16:26;17.20;99.90
26270;DHT22;15937;50.612;6.656;2023-05-07T16:20:30;17.30;99.90
26270;DHT22;15937;50.612;6.656;2023-05-07T16:24:33;16.80;99.90
26270;DHT22;15937;50.612;6.656;2023-05-07T16:28:34;16.80;99.90
26270;DHT22;15937;50.612;6.656;2023-05-07T16:32:36;16.90;99.90
26270;DHT22;15937;50.612;6.656;2023-05-07T16:36:38;16.80;99.90
26270;DHT22;15937;50.612;6.656;2023-05-07T16:40:40;16.90;99.90
26270;DHT22;15937;50.612;6.656;2023-05-07T16:44:42;16.90;99.90
26270;DHT22;15937;50.612;6.656;2023-05-07T16:48:44;16.70;99.90
26270;DHT22;15937;50.612;6.656;2023-05-07T16:52:46;16.80;99.90
26270;DHT22;15937;50.612;6.656;2023-05-07T16:56:47;16.60;99.90
26270;DHT22;15937;50.612;6.656;2023-05-07T17:00:49;16.80;99.90
26270;DHT22;15937;50.612;6.656;2023-05-07T17:04:52;16.80;99.90
26270;DHT22;15937;50.612;6.656;2023-05-07T17:08:53;16.80;99.90
26270;DHT22;15937;50.612;6.656;2023-05-07T17:12:57;16.80;99.90
26270;DHT22;15937;50.612;6.656;2023-05-07T17:16:59;16.60;99.90
26270;DHT22;15937;50.612;6.656;2023-05-07T17:21:01;16.70;99.90
26270;DHT22;15937;50.612;6.656;2023-05-07T17:25:03;16.60;99.90
26270;DHT22;15937;50.612;6.656;2023-05-07T17:29:05;16.50;99.90
26270;DHT22;15937;50.612;6.656;2023-05-07T17:33:07;16.30;99.90
26270;DHT22;15937;50.612;6.656;2023-05-07T17:37:22;16.30;99.90
26270;DHT22;15937;50.612;6.656;2023-05-07T17:41:24;16.30;99.90
26270;DHT22;15937;50.612;6.656;2023-05-07T17:45:26;16.60;99.90
26270;DHT22;15937;50.612;6.656;2023-05-07T17:49:28;16.60;99.90
26270;DHT22;15937;50.612;6.656;2023-05-07T17:53:30;16.40;99.90
26270;DHT22;15937;50.612;6.656;2023-05-07T17:57:31;16.20;99.90
26270;DHT22;15937;50.612;6.656;2023-05-07T18:01:36;16.40;99.90
26270;DHT22;15937;50.612;6.656;2023-05-07T18:05:38;16.40;99.90
26270;DHT22;15937;50.612;6.656;2023-05-07T18:09:40;16.30;99.90
26270;DHT22;15937;50.612;6.656;2023-05-07T18:13:42;16.20;99.90
26270;DHT22;15937;50.612;6.656;2023-05-07T18:17:43;16.30;99.90
26270;DHT22;15937;50.612;6.656;2023-05-07T18:21:45;16.40;99.90
26270;DHT22;15937;50.612;6.656;2023-05-07T18:25:47;16.20;99.90
26270;DHT22;15937;50.612;6.656;2023-05-07T18:29:49;16.30;99.90
26270;DHT22;15937;50.612;6.656;2023-05-07T18:33:51;16.00;99.90
26270;DHT22;15937;50.612;6.656;2023-05-07T18:37:53;16.10;99.90
26270;DHT22;15937;50.612;6.656;2023-05-07T18:41:55;16.20;99.90
26270;DHT22;15937;50.612;6.656;2023-05-07T18:45:58;16.20;99.90
26270;DHT22;15937;50.612;6.656;2023-05-07T18:50:00;16.10;99.90
26270;DHT22;15937;50.612;6.656;2023-05-07T18:54:01;16.10;99.90
26270;DHT22;15937;50.612;6.656;2023-05-07T18:58:03;16.10;99.90
26270;DHT22;15937;50.612;6.656;2023-05-07T19:02:05;16.10;99.90
26270;DHT22;15937;50.612;6.656;2023-05-07T19:06:07;16.10;99.90
26270;DHT22;15937;50.612;6.656;2023-05-07T19:10:08;16.00;99.90
26270;DHT22;15937;50.612;6.656;2023-05-07T19:14:11;15.70;99.90
26270;DHT22;15937;50.612;6.656;2023-05-07T19:18:13;15.70;99.90
26270;DHT22;15937;50.612;6.656;2023-05-07T19:22:15;15.70;99.90
26270;DHT22;15937;50.612;6.656;2023-05-07T19:26:17;15.70;99.90
26270;DHT22;15937;50.612;6.656;2023-05-07T19:30:20;15.90;99.90
26270;DHT22;15937;50.612;6.656;2023-05-07T19:34:22;15.80;99.90
26270;DHT22;15937;50.612;6.656;2023-05-07T19:38:24;16.00;99.90
26270;DHT22;15937;50.612;6.656;2023-05-07T19:42:26;15.60;99.90
26270;DHT22;15937;50.612;6.656;2023-05-07T19:46:28;15.50;99.90
26270;DHT22;15937;50.612;6.656;2023-05-07T19:50:30;15.40;99.90
26270;DHT22;15937;50.612;6.656;2023-05-07T19:54:31;15.40;99.90
26270;DHT22;15937;50.612;6.656;2023-05-07T19:58:34;15.60;99.90
26270;DHT22;15937;50.612;6.656;2023-05-07T20:02:35;15.70;99.90
26270;DHT22;15937;50.612;6.656;2023-05-07T20:06:37;15.40;99.90
26270;DHT22;15937;50.612;6.656;2023-05-07T20:10:39;15.60;99.90
26270;DHT22;15937;50.612;6.656;2023-05-07T20:14:41;15.70;99.90
26270;DHT22;15937;50.612;6.656;2023-05-07T20:18:43;15.40;99.90
26270;DHT22;15937;50.612;6.656;2023-05-07T20:22:44;15.50;99.90
26270;DHT22;15937;50.612;6.656;2023-05-07T20:26:46;15.60;99.90
26270;DHT22;15937;50.612;6.656;2023-05-07T20:30:48;15.60;99.90
26270;DHT22;15937;50.612;6.656;2023-05-07T20:34:50;15.60;99.90
26270;DHT22;15937;50.612;6.656;2023-05-07T20:38:53;15.70;99.90
26270;DHT22;15937;50.612;6.656;2023-05-07T20:42:54;15.80;99.90
26270;DHT22;15937;50.612;6.656;2023-05-07T20:46:56;15.70;99.90
26270;DHT22;15937;50.612;6.656;2023-05-07T20:50:59;15.70;99.90
26270;DHT22;15937;50.612;6.656;2023-05-07T20:55:01;15.70;99.90
26270;DHT22;15937;50.612;6.656;2023-05-07T20:59:03;15.70;99.90
26270;DHT22;15937;50.612;6.656;2023-05-07T21:03:05;15.70;99.90
26270;DHT22;15937;50.612;6.656;2023-05-07T21:07:07;15.60;99.90
26270;DHT22;15937;50.612;6.656;2023-05-07T21:11:10;15.70;99.90
26270;DHT22;15937;50.612;6.656;2023-05-07T21:15:13;15.50;99.90
26270;DHT22;15937;50.612;6.656;2023-05-07T21:19:15;15.50;99.90
26270;DHT22;15937;50.612;6.656;2023-05-07T21:23:17;15.60;99.90
26270;DHT22;15937;50.612;6.656;2023-05-07T21:27:19;15.60;99.90
26270;DHT22;15937;50.612;6.656;2023-05-07T21:31:20;15.50;99.90
26270;DHT22;15937;50.612;6.656;2023-05-07T21:35:22;15.50;99.90
26270;DHT22;15937;50.612;6.656;2023-05-07T21:39:24;15.20;99.90
26270;DHT22;15937;50.612;6.656;2023-05-07T21:43:26;15.50;99.90
26270;DHT22;15937;50.612;6.656;2023-05-07T21:47:27;15.60;99.90
26270;DHT22;15937;50.612;6.656;2023-05-07T21:51:31;15.50;99.90
26270;DHT22;15937;50.612;6.656;2023-05-07T21:55:35;15.50;99.90
26270;DHT22;15937;50.612;6.656;2023-05-07T21:59:36;15.40;99.90
26270;DHT22;15937;50.612;6.656;2023-05-07T22:03:38;15.30;99.90
26270;DHT22;15937;50.612;6.656;2023-05-07T22:07:41;15.20;99.90
26270;DHT22;15937;50.612;6.656;2023-05-07T22:11:43;15.10;99.90
26270;DHT22;15937;50.612;6.656;2023-05-07T22:15:45;15.20;99.90
26270;DHT22;15937;50.612;6.656;2023-05-07T22:19:58;15.20;99.90
26270;DHT22;15937;50.612;6.656;2023-05-07T22:23:59;15.10;99.90
26270;DHT22;15937;50.612;6.656;2023-05-07T22:28:01;15.20;99.90
26270;DHT22;15937;50.612;6.656;2023-05-07T22:32:03;15.20;99.90
26270;DHT22;15937;50.612;6.656;2023-05-07T22:36:05;15.20;99.90
26270;DHT22;15937;50.612;6.656;2023-05-07T22:40:08;15.00;99.90
26270;DHT22;15937;50.612;6.656;2023-05-07T22:44:10;14.80;99.90
26270;DHT22;15937;50.612;6.656;2023-05-07T22:48:12;14.70;99.90
26270;DHT22;15937;50.612;6.656;2023-05-07T22:52:14;14.90;99.90
26270;DHT22;15937;50.612;6.656;2023-05-07T22:56:17;14.80;99.90
26270;DHT22;15937;50.612;6.656;2023-05-07T23:00:19;14.70;99.90
26270;DHT22;15937;50.612;6.656;2023-05-07T23:04:21;14.60;99.90
26270;DHT22;15937;50.612;6.656;2023-05-07T23:08:22;14.50;99.90
26270;DHT22;15937;50.612;6.656;2023-05-07T23:12:24;14.60;99.90
26270;DHT22;15937;50.612;6.656;2023-05-07T23:16:26;14.60;99.90
26270;DHT22;15937;50.612;6.656;2023-05-07T23:20:30;14.60;99.90
26270;DHT22;15937;50.612;6.656;2023-05-07T23:24:31;14.30;99.90
26270;DHT22;15937;50.612;6.656;2023-05-07T23:28:34;14.30;99.90
26270;DHT22;15937;50.612;6.656;2023-05-07T23:32:36;14.50;99.90
26270;DHT22;15937;50.612;6.656;2023-05-07T23:36:38;14.60;99.90
26270;DHT22;15937;50.612;6.656;2023-05-07T23:40:40;14.70;99.90
26270;DHT22;15937;50.612;6.656;2023-05-07T23:44:42;14.70;99.90
26270;DHT22;15937;50.612;6.656;2023-05-07T23:48:44;14.50;99.90
26270;DHT22;15937;50.612;6.656;2023-05-07T23:52:45;14.50;99.90
26270;DHT22;15937;50.612;6.656;2023-05-07T23:56:47;14.50;99.90
